Pascola, Missouri
Current Conditions -  °F | °C
As of 7:23 PM on Sunday 23 Nov 2014 (Local Time) from KHKA Reporting Station
Overcast Overcast  
Wind Chill: 65°   Ceiling: 600
Heat Index: 65°   Visibility: 10mi
Dew Point: 58°   Wind: 17mph
Humidity: 78%   Direction: 220°SW
Pressure: 29.4"   Gusts: NA
Location:  36.27°N, 89.83°W
Report Text: KHKA 240123Z AUTO 22015KT 10SM OVC006 18/14 A2940 RMK AO2 T01830144 $
Loading
Personal Weather Stations






























Interactive Weather Map New forecast layout! Learn more

10-Day Weather Forecast

Advertisements
Track Severe Weather on mobile